This is the latest recevied weather packets stored in our database for station/object N0TKN. If no packets are shown the sender has not sent any weather packets the latest 10 day(s).
| Time | Temp. | Humidity | Pressure | Rain* | Wind** | Luminosity | Snow |
|---|---|---|---|---|---|---|---|
| 1778253318 | 15° C | 72% | 1010.3 hPa | 0.25 mm | - | 281 W/m² | - |
| 1778252718 | 15° C | 72% | 1010.5 hPa | 0.25 mm | - | 235 W/m² | - |
| 1778252118 | 14.44° C | 71% | 1011 hPa | 0 mm | - | 151 W/m² | - |
| 1778251515 | 13.89° C | 72% | 1010.9 hPa | 0 mm | - | 91 W/m² | - |
| 1778250916 | 13.89° C | 73% | 1010.9 hPa | 0 mm | - | 100 W/m² | - |
| 1778250316 | 13.33° C | 75% | 1011 hPa | 0 mm | - | 98 W/m² | - |
| 1778249716 | 12.78° C | 77% | 1011.2 hPa | 0 mm | - | 51 W/m² | - |
| 1778249116 | 12.78° C | 77% | 1011.3 hPa | 0 mm | - | 38 W/m² | - |
| 1778248516 | 12.78° C | 80% | 1011.3 hPa | 0 mm | - | 45 W/m² | - |
| 1778247916 | 12.78° C | 80% | 1011.4 hPa | 0 mm | - | 49 W/m² | - |
| 1778247316 | 12.22° C | 79% | 1011.5 hPa | 0 mm | - | 84 W/m² | - |
| 1778246717 | 12.22° C | 80% | 1011.7 hPa | 0 mm | - | 94 W/m² | - |
| 1778246117 | 11.67° C | 83% | 1011.9 hPa | 0 mm | - | 34 W/m² | - |
| 1778245517 | 12.22° C | 81% | 1011.7 hPa | 0 mm | - | 40 W/m² | - |
| 1778244917 | 11.67° C | 79% | 1011 hPa | 0 mm | - | 40 W/m² | - |
| 1778244317 | 11.67° C | 80% | 1011.1 hPa | 0 mm | - | 33 W/m² | - |
| 1778243717 | 11.67° C | 79% | 1011 hPa | 0 mm | - | 44 W/m² | - |
| 1778243118 | 11.67° C | 80% | 1010.9 hPa | 0 mm | - | 39 W/m² | - |
| 1778242518 | 11.67° C | 79% | 1010.6 hPa | 0 mm | - | 74 W/m² | - |
| 1778241918 | 10.56° C | 82% | 1010.4 hPa | 0 mm | - | 119 W/m² | - |
| 1778241318 | 10° C | 83% | 1010.7 hPa | 0 mm | - | 61 W/m² | - |
| 1778240718 | 10° C | 85% | 1010.8 hPa | 0 mm | - | 50 W/m² | - |
| 1778240118 | 9.44° C | 85% | 1010.9 hPa | 0 mm | - | 35 W/m² | - |
| 1778239518 | 9.44° C | 85% | 1011.2 hPa | 0 mm | - | 19 W/m² | - |
| 1778238916 | 9.44° C | 86% | 1011 hPa | 0 mm | - | 9 W/m² | - |
* Rain latest hour (hover to see other rain measurements)
** Current wind speed in m/s (hover to see current wind gust speed)